createdAt,value
2019-03-29T00:02:14.479Z,25.57
2019-03-29T00:04:45.525Z,31.10
2019-03-29T00:07:16.261Z,27.07
2019-03-29T00:09:46.598Z,20.70
2019-03-29T00:12:16.990Z,22.07
2019-03-29T00:14:47.332Z,24.40
2019-03-29T00:17:18.339Z,30.80
2019-03-29T00:19:49.215Z,27.67
2019-03-29T00:22:19.579Z,25.13
2019-03-29T00:24:49.923Z,28.80
2019-03-29T00:27:20.914Z,27.13
2019-03-29T00:29:51.645Z,25.50
2019-03-29T00:32:22.289Z,25.03
2019-03-29T00:34:53.063Z,23.70
2019-03-29T00:37:24.064Z,26.87
2019-03-29T00:39:54.447Z,28.30
2019-03-29T00:42:25.432Z,25.60
2019-03-29T00:44:55.799Z,33.53
2019-03-29T00:47:27.163Z,26.03
2019-03-29T00:49:57.595Z,25.40
2019-03-29T00:52:27.959Z,24.47
2019-03-29T00:54:58.607Z,25.67
2019-03-29T00:57:28.969Z,33.53
2019-03-29T00:59:59.686Z,26.90
2019-03-29T01:02:30.048Z,29.93
2019-03-29T01:05:01.570Z,28.53
2019-03-29T01:07:32.442Z,27.50
2019-03-29T01:10:03.457Z,28.37
2019-03-29T01:12:33.823Z,25.30
2019-03-29T01:15:08.904Z,29.17
2019-03-29T01:17:39.731Z,28.80
2019-03-29T01:20:10.514Z,33.03
2019-03-29T01:22:41.739Z,37.27
2019-03-29T01:25:12.080Z,35.27
2019-03-29T01:27:42.744Z,35.53
2019-03-29T01:30:13.107Z,35.80
2019-03-29T01:32:43.472Z,43.73
2019-03-29T01:35:13.920Z,36.33
2019-03-29T01:37:44.272Z,32.60
2019-03-29T01:40:15.211Z,36.80
2019-03-29T01:42:45.579Z,36.40
2019-03-29T01:45:16.290Z,37.10
2019-03-29T01:47:47.352Z,42.80
2019-03-29T01:50:18.186Z,43.17
2019-03-29T01:52:48.939Z,40.97
2019-03-29T01:55:19.759Z,36.83
2019-03-29T01:57:50.123Z,39.40
2019-03-29T02:00:42.139Z,35.10
2019-03-29T02:03:13.181Z,39.30
2019-03-29T02:05:43.722Z,40.33
2019-03-29T02:08:14.082Z,45.07
2019-03-29T02:10:44.434Z,38.00
2019-03-29T02:13:15.147Z,36.27
2019-03-29T02:15:45.826Z,36.23
2019-03-29T02:18:16.339Z,36.85
2019-03-29T02:20:46.700Z,36.20
2019-03-29T02:23:17.041Z,31.97
2019-03-29T02:25:48.208Z,35.17
2019-03-29T02:28:19.032Z,36.97
2019-03-29T02:30:49.644Z,30.90
2019-03-29T02:33:20.802Z,34.27
2019-03-29T02:35:51.908Z,36.30
2019-03-29T02:38:23.624Z,33.20
2019-03-29T02:40:54.919Z,33.47
2019-03-29T02:43:25.286Z,38.97
2019-03-29T02:45:57.598Z,25.23
2019-03-29T02:48:27.805Z,29.77
2019-03-29T02:50:58.178Z,29.63
2019-03-29T02:53:28.499Z,28.27
2019-03-29T02:55:59.376Z,31.97
2019-03-29T02:58:29.891Z,27.58
2019-03-29T03:01:00.255Z,28.57
2019-03-29T03:03:30.592Z,25.97
2019-03-29T03:06:01.753Z,28.00
2019-03-29T03:08:33.111Z,26.80
2019-03-29T03:11:04.687Z,28.10
2019-03-29T03:13:35.115Z,27.03
2019-03-29T03:16:05.845Z,23.77
2019-03-29T03:18:36.573Z,30.75
2019-03-29T03:21:06.918Z,29.90
2019-03-29T03:23:37.524Z,26.37
2019-03-29T03:26:07.920Z,30.80
2019-03-29T03:28:40.843Z,33.00
2019-03-29T03:31:11.504Z,39.70
2019-03-29T03:33:41.856Z,33.95
2019-03-29T03:36:13.160Z,27.55
2019-03-29T03:38:43.960Z,28.90
2019-03-29T03:41:15.186Z,34.80
2019-03-29T03:43:45.539Z,38.00
2019-03-29T03:46:15.886Z,36.63
2019-03-29T03:48:46.246Z,34.27
2019-03-29T03:51:16.613Z,41.25
2019-03-29T03:53:47.365Z,39.33
2019-03-29T03:56:18.448Z,37.23
2019-03-29T03:58:48.781Z,41.50
2019-03-29T04:01:20.123Z,36.37
2019-03-29T04:03:51.111Z,38.10
2019-03-29T04:06:21.465Z,49.93
2019-03-29T04:08:51.820Z,45.87
2019-03-29T04:11:22.205Z,42.63
2019-03-29T04:13:52.690Z,45.57
2019-03-29T04:16:23.038Z,45.73
2019-03-29T04:18:53.761Z,52.20
2019-03-29T04:21:24.101Z,40.77
2019-03-29T04:23:54.438Z,46.50
2019-03-29T04:26:24.826Z,46.83
2019-03-29T04:29:04.334Z,50.90
2019-03-29T04:31:27.930Z,48.13
2019-03-29T04:33:58.407Z,55.23
2019-03-29T04:36:28.761Z,54.50
2019-03-29T04:38:59.087Z,62.63
2019-03-29T04:41:29.809Z,48.70
2019-03-29T04:44:00.543Z,54.43
2019-03-29T04:46:31.216Z,60.73
2019-03-29T04:49:01.875Z,56.23
2019-03-29T04:51:32.233Z,61.90
2019-03-29T04:54:02.837Z,75.37
2019-03-29T04:56:33.579Z,64.23
2019-03-29T04:59:04.689Z,60.00
2019-03-29T05:01:35.062Z,60.93
2019-03-29T05:04:06.066Z,59.93
2019-03-29T05:06:36.399Z,58.40
2019-03-29T05:09:07.147Z,68.03
2019-03-29T05:11:37.846Z,65.43
2019-03-29T05:14:08.461Z,68.47
2019-03-29T05:16:38.806Z,60.90
2019-03-29T05:19:09.892Z,58.40
2019-03-29T05:21:40.612Z,69.03
2019-03-29T05:24:11.548Z,65.97
2019-03-29T05:26:42.021Z,71.93
2019-03-29T05:29:12.383Z,65.63
2019-03-29T05:31:43.457Z,69.23
2019-03-29T05:34:14.192Z,69.93
2019-03-29T05:36:45.118Z,78.00
2019-03-29T05:39:15.497Z,68.03
2019-03-29T05:41:45.907Z,74.40
2019-03-29T05:44:17.114Z,78.70
2019-03-29T05:46:48.179Z,67.60
2019-03-29T05:49:18.584Z,70.57
2019-03-29T05:51:48.948Z,66.70
2019-03-29T05:54:19.673Z,70.43
2019-03-29T05:56:50.718Z,78.17
2019-03-29T05:59:40.490Z,70.00
2019-03-29T06:02:10.876Z,77.90
2019-03-29T06:04:41.579Z,79.33
2019-03-29T06:07:12.295Z,67.70
2019-03-29T06:09:43.015Z,72.23
2019-03-29T06:12:13.359Z,76.27
2019-03-29T06:14:43.754Z,75.03
2019-03-29T06:17:14.784Z,68.33
2019-03-29T06:19:45.431Z,60.83
2019-03-29T06:22:15.806Z,65.60
2019-03-29T06:24:46.936Z,67.13
2019-03-29T06:27:17.980Z,68.33
2019-03-29T06:29:48.612Z,75.70
2019-03-29T06:32:19.330Z,64.20
2019-03-29T06:34:49.960Z,71.57
2019-03-29T06:37:20.604Z,66.00
2019-03-29T06:39:51.011Z,72.93
2019-03-29T06:42:21.692Z,59.03
2019-03-29T06:44:52.413Z,74.03
2019-03-29T06:47:23.195Z,65.23
2019-03-29T06:49:54.206Z,62.77
2019-03-29T06:52:25.415Z,60.93
2019-03-29T06:54:55.831Z,67.43
2019-03-29T06:57:26.512Z,62.07
2019-03-29T06:59:57.875Z,57.37
2019-03-29T07:02:28.258Z,64.10
2019-03-29T07:04:58.628Z,61.33
2019-03-29T07:07:28.998Z,65.47
2019-03-29T07:09:59.656Z,56.10
2019-03-29T07:12:32.476Z,56.00
2019-03-29T07:15:02.824Z,59.77
2019-03-29T07:17:33.242Z,57.53
2019-03-29T07:20:05.656Z,61.67
2019-03-29T07:22:37.145Z,59.40
2019-03-29T07:25:08.323Z,60.17
2019-03-29T07:27:44.264Z,63.03
2019-03-29T07:30:10.807Z,66.33
2019-03-29T07:32:41.225Z,69.93
2019-03-29T07:35:11.963Z,73.63
2019-03-29T07:37:42.712Z,61.83
2019-03-29T07:40:13.098Z,63.73
2019-03-29T07:42:43.807Z,55.97
2019-03-29T07:45:14.461Z,61.60
2019-03-29T07:47:44.872Z,62.10
2019-03-29T07:50:18.918Z,67.13
2019-03-29T07:52:47.919Z,67.30
2019-03-29T07:55:19.150Z,65.73
2019-03-29T07:57:49.841Z,63.43
2019-03-29T08:00:20.672Z,62.67
2019-03-29T08:02:51.777Z,61.40
2019-03-29T08:05:22.149Z,59.63
2019-03-29T08:07:52.851Z,55.97
2019-03-29T08:10:28.858Z,59.33
2019-03-29T08:12:56.373Z,62.00
2019-03-29T08:15:27.308Z,60.30
2019-03-29T08:18:01.373Z,64.23
2019-03-29T08:20:41.966Z,63.03
2019-03-29T08:23:02.189Z,68.13
2019-03-29T08:25:32.940Z,52.10
2019-03-29T08:28:03.976Z,55.37
2019-03-29T08:30:34.586Z,52.97
2019-03-29T08:33:05.327Z,56.80
2019-03-29T08:35:36.046Z,54.57
2019-03-29T08:38:06.478Z,49.67
2019-03-29T08:40:37.134Z,57.83
2019-03-29T08:43:07.765Z,48.17
2019-03-29T08:45:38.111Z,49.73
2019-03-29T08:48:08.550Z,46.40
2019-03-29T08:50:38.901Z,51.87
2019-03-29T08:53:09.582Z,52.33
2019-03-29T08:55:45.955Z,53.97
2019-03-29T08:58:12.026Z,50.83
2019-03-29T09:00:42.387Z,52.67
2019-03-29T09:03:13.216Z,55.87
2019-03-29T09:05:43.910Z,51.00
2019-03-29T09:08:18.945Z,45.83
2019-03-29T09:10:49.867Z,55.00
2019-03-29T09:13:20.401Z,48.60
2019-03-29T09:15:51.609Z,48.37
2019-03-29T09:18:25.737Z,49.07
2019-03-29T09:20:54.469Z,49.37
2019-03-29T09:23:25.214Z,55.37
2019-03-29T09:25:55.583Z,42.90
2019-03-29T09:28:26.302Z,43.57
2019-03-29T09:30:56.906Z,44.47
2019-03-29T09:33:27.500Z,48.13
2019-03-29T09:35:57.918Z,42.97
2019-03-29T09:38:28.595Z,43.73
2019-03-29T09:40:59.476Z,49.43
2019-03-29T09:43:29.949Z,45.00
2019-03-29T09:46:03.278Z,38.03
2019-03-29T09:48:34.751Z,35.33
2019-03-29T09:51:05.362Z,36.63
2019-03-29T09:53:36.103Z,36.93
2019-03-29T09:56:07.106Z,39.73
2019-03-29T09:58:37.450Z,38.83
2019-03-29T10:01:08.526Z,38.43
2019-03-29T10:03:39.054Z,38.77
2019-03-29T10:06:10.150Z,39.63
2019-03-29T10:08:40.912Z,29.30
2019-03-29T10:11:11.303Z,36.43
2019-03-29T10:13:41.654Z,35.30
2019-03-29T10:16:12.004Z,37.87
2019-03-29T10:18:43.045Z,35.47
2019-03-29T10:21:16.903Z,31.40
2019-03-29T10:23:45.942Z,33.00
2019-03-29T10:26:16.331Z,32.00
2019-03-29T10:28:47.089Z,23.60
2019-03-29T10:31:31.518Z,27.40
2019-03-29T10:33:49.994Z,24.90
2019-03-29T10:36:20.372Z,26.90
2019-03-29T10:38:50.720Z,27.20
2019-03-29T10:41:22.543Z,19.80
2019-03-29T10:43:53.351Z,23.50
2019-03-29T10:46:24.380Z,24.10
2019-03-29T10:48:55.149Z,20.90
2019-03-29T10:51:26.291Z,21.00
2019-03-29T10:53:56.711Z,18.27
2019-03-29T10:56:34.160Z,19.93
2019-03-29T10:58:59.592Z,15.13
2019-03-29T11:01:29.983Z,18.10
2019-03-29T11:04:00.780Z,13.97
2019-03-29T11:06:31.120Z,16.33
2019-03-29T11:09:01.554Z,12.37
2019-03-29T11:11:32.421Z,11.63
2019-03-29T11:14:03.533Z,14.23
2019-03-29T11:16:34.478Z,15.17
2019-03-29T11:19:05.271Z,7.27
2019-03-29T11:21:36.035Z,11.13
2019-03-29T11:24:09.096Z,8.70
2019-03-29T11:26:38.850Z,9.57
2019-03-29T11:29:09.219Z,6.60
2019-03-29T11:31:40.113Z,5.70
2019-03-29T11:34:11.213Z,3.70
2019-03-29T11:36:41.899Z,5.13
2019-03-29T11:39:12.287Z,5.07
2019-03-29T11:41:43.125Z,3.77
2019-03-29T11:44:13.479Z,3.30
2019-03-29T11:46:44.210Z,3.53
2019-03-29T11:49:14.629Z,2.80
2019-03-29T11:51:45.363Z,4.03
2019-03-29T11:54:15.734Z,2.60
2019-03-29T11:56:47.734Z,3.80
2019-03-29T11:59:18.310Z,5.73
2019-03-29T12:01:49.446Z,3.83
2019-03-29T12:04:19.913Z,3.30
2019-03-29T12:06:50.549Z,3.70
2019-03-29T12:09:20.907Z,3.97
2019-03-29T12:11:51.560Z,4.10
2019-03-29T12:14:22.489Z,3.00
2019-03-29T12:16:53.432Z,3.80
2019-03-29T12:19:24.914Z,4.20
2019-03-29T12:21:55.829Z,8.47
2019-03-29T12:24:26.470Z,2.90
2019-03-29T12:26:56.837Z,3.33
2019-03-29T12:29:27.462Z,3.43
2019-03-29T12:31:57.804Z,3.67
2019-03-29T12:34:28.264Z,8.03
2019-03-29T12:36:58.939Z,3.70
2019-03-29T12:39:29.539Z,3.10
2019-03-29T12:41:59.966Z,3.57
2019-03-29T12:44:30.607Z,3.37
2019-03-29T12:47:01.339Z,4.40
2019-03-29T12:49:32.432Z,3.53
2019-03-29T12:52:03.371Z,13.80
2019-03-29T12:54:33.983Z,3.37
2019-03-29T12:57:06.869Z,3.67
2019-03-29T12:59:37.329Z,4.03
2019-03-29T13:02:07.731Z,5.43
2019-03-29T13:04:39.132Z,4.20
2019-03-29T13:07:09.724Z,3.93
2019-03-29T13:09:40.166Z,3.93
2019-03-29T13:12:10.877Z,7.73
2019-03-29T13:14:41.826Z,4.83
2019-03-29T13:17:12.419Z,4.40
2019-03-29T13:19:43.492Z,5.20
2019-03-29T13:22:14.095Z,5.93
2019-03-29T13:24:44.763Z,5.37
2019-03-29T13:27:15.585Z,6.70
2019-03-29T13:29:46.200Z,7.90
2019-03-29T13:32:16.514Z,5.60
2019-03-29T13:34:47.048Z,6.40
2019-03-29T13:37:18.158Z,5.63
2019-03-29T13:39:48.506Z,6.10
2019-03-29T13:42:18.878Z,5.80
2019-03-29T13:44:49.213Z,8.57
2019-03-29T13:47:19.541Z,9.87
2019-03-29T13:49:49.978Z,12.23
2019-03-29T13:52:20.336Z,5.80
2019-03-29T13:54:50.698Z,5.50
2019-03-29T13:57:21.327Z,8.90
2019-03-29T13:59:51.666Z,6.60
2019-03-29T14:02:22.004Z,5.97
2019-03-29T14:04:52.776Z,5.57
2019-03-29T14:07:23.786Z,7.60
2019-03-29T14:09:54.121Z,6.37
2019-03-29T14:12:24.839Z,7.70
2019-03-29T14:14:55.617Z,6.67
2019-03-29T14:17:25.955Z,6.30
2019-03-29T14:19:56.841Z,14.63
2019-03-29T14:22:27.219Z,8.60
2019-03-29T14:24:57.560Z,6.60
2019-03-29T14:27:27.946Z,5.80
2019-03-29T14:30:04.746Z,9.03
2019-03-29T14:32:30.354Z,19.93
2019-03-29T14:35:01.375Z,8.27
2019-03-29T14:37:32.113Z,13.33
2019-03-29T14:40:02.541Z,6.90
2019-03-29T14:42:33.307Z,8.80
2019-03-29T14:45:05.849Z,10.47
2019-03-29T14:47:43.384Z,7.70
2019-03-29T14:50:09.824Z,8.53
2019-03-29T14:52:40.189Z,7.47
2019-03-29T14:58:59.685Z,11.50
2019-03-29T15:01:30.390Z,7.20
2019-03-29T15:04:01.382Z,9.97
2019-03-29T15:06:32.603Z,11.63
2019-03-29T15:09:04.800Z,7.70
2019-03-29T15:11:35.177Z,8.50
2019-03-29T15:14:05.570Z,11.67
2019-03-29T15:16:35.917Z,9.13
2019-03-29T15:19:06.276Z,10.37
2019-03-29T15:21:36.678Z,8.10
2019-03-29T15:24:07.035Z,8.93
2019-03-29T15:26:37.741Z,10.97
2019-03-29T15:29:08.481Z,7.80
2019-03-29T15:31:38.842Z,7.33
2019-03-29T15:34:09.935Z,11.07
2019-03-29T15:36:40.352Z,8.63
2019-03-29T15:39:11.074Z,7.77
2019-03-29T15:41:41.432Z,9.93
2019-03-29T15:44:11.821Z,8.17
2019-03-29T15:46:42.175Z,6.43
2019-03-29T15:49:12.538Z,6.20
2019-03-29T15:51:43.252Z,6.37
2019-03-29T15:54:13.616Z,6.33
2019-03-29T15:56:44.308Z,7.37
2019-03-29T15:59:14.700Z,9.17
2019-03-29T16:01:45.133Z,8.23
2019-03-29T16:04:15.923Z,8.00
2019-03-29T16:06:48.710Z,7.60
2019-03-29T16:09:19.497Z,6.53
2019-03-29T16:11:50.561Z,6.73
2019-03-29T16:14:21.312Z,9.40
2019-03-29T16:16:52.369Z,7.80
2019-03-29T16:19:22.704Z,8.87
2019-03-29T16:21:53.382Z,8.13
2019-03-29T16:24:23.740Z,6.67
2019-03-29T16:27:13.573Z,6.43
2019-03-29T16:29:44.277Z,7.07
2019-03-29T16:32:15.090Z,6.10
2019-03-29T16:34:45.967Z,9.87
2019-03-29T16:37:16.284Z,8.57
2019-03-29T16:39:47.017Z,7.17
2019-03-29T16:42:18.014Z,9.23
2019-03-29T16:44:48.456Z,7.73
2019-03-29T16:47:18.866Z,10.77
2019-03-29T16:49:49.714Z,10.83
2019-03-29T16:52:20.076Z,9.33
2019-03-29T16:54:50.832Z,13.63
2019-03-29T16:57:21.514Z,11.00
2019-03-29T16:59:52.197Z,10.87
2019-03-29T17:02:23.127Z,8.10
2019-03-29T17:04:54.150Z,14.10
2019-03-29T17:07:24.806Z,9.67
2019-03-29T17:09:55.157Z,10.70
2019-03-29T17:12:25.990Z,11.33
2019-03-29T17:14:56.434Z,9.20
2019-03-29T17:17:27.218Z,10.07
2019-03-29T17:19:57.614Z,11.80
2019-03-29T17:22:28.279Z,8.43
2019-03-29T17:24:59.430Z,13.00
2019-03-29T17:27:30.158Z,11.13
2019-03-29T17:30:00.519Z,14.83
2019-03-29T17:32:30.879Z,11.13
2019-03-29T17:35:01.531Z,9.60
2019-03-29T17:37:32.518Z,11.90
2019-03-29T17:40:03.534Z,14.67
2019-03-29T17:42:33.975Z,9.27
2019-03-29T17:45:06.828Z,11.00
2019-03-29T17:47:37.525Z,13.00
2019-03-29T17:50:07.902Z,12.90
2019-03-29T17:52:38.289Z,12.83
2019-03-29T17:55:08.973Z,12.37
2019-03-29T17:57:39.956Z,13.17
2019-03-29T18:00:12.477Z,19.17
2019-03-29T18:02:43.116Z,13.03
2019-03-29T18:05:14.051Z,11.90
2019-03-29T18:07:44.663Z,11.03
2019-03-29T18:10:15.343Z,14.67
2019-03-29T18:12:46.129Z,10.00
2019-03-29T18:15:16.509Z,12.40
2019-03-29T18:17:47.293Z,12.90
2019-03-29T18:20:17.758Z,12.03
2019-03-29T18:22:48.654Z,15.50
2019-03-29T18:25:19.170Z,14.07
2019-03-29T18:27:50.338Z,12.23
2019-03-29T18:30:40.247Z,12.70
2019-03-29T18:33:11.670Z,12.80
2019-03-29T18:35:42.376Z,12.10
2019-03-29T18:38:13.155Z,12.57
2019-03-29T18:40:43.813Z,14.20
2019-03-29T18:43:14.620Z,9.77
2019-03-29T18:45:45.699Z,11.10
2019-03-29T18:48:16.209Z,11.67
2019-03-29T18:50:46.679Z,10.40
2019-03-29T18:53:17.127Z,12.07
2019-03-29T18:55:47.723Z,10.17
2019-03-29T18:58:18.442Z,16.20
2019-03-29T19:00:48.987Z,12.63
2019-03-29T19:03:20.041Z,14.30
2019-03-29T19:05:50.884Z,14.00
2019-03-29T19:08:23.671Z,18.63
2019-03-29T19:10:54.141Z,16.67
2019-03-29T19:13:24.821Z,18.07
2019-03-29T19:15:55.155Z,18.87
2019-03-29T19:18:25.900Z,19.47
2019-03-29T19:20:56.263Z,23.77
2019-03-29T19:23:26.908Z,19.40
2019-03-29T19:25:58.005Z,18.90
2019-03-29T19:28:28.730Z,16.10
2019-03-29T19:30:59.091Z,22.10
2019-03-29T19:33:29.484Z,21.93
2019-03-29T19:35:59.847Z,68.53
2019-03-29T19:38:30.218Z,105.03
2019-03-29T19:41:00.874Z,40.83
2019-03-29T19:43:31.209Z,27.07
2019-03-29T19:46:01.748Z,21.50
2019-03-29T19:48:32.167Z,17.83
2019-03-29T19:51:02.508Z,22.30
2019-03-29T19:53:34.459Z,16.10
2019-03-29T19:56:05.511Z,17.10
2019-03-29T19:58:35.869Z,18.80
2019-03-29T20:01:06.221Z,20.17
2019-03-29T20:03:37.007Z,14.37
2019-03-29T20:06:07.735Z,15.53
2019-03-29T20:08:39.836Z,15.33
2019-03-29T20:11:10.270Z,17.87
2019-03-29T20:13:40.999Z,24.85
2019-03-29T20:16:11.818Z,23.20
2019-03-29T20:18:42.836Z,28.98
2019-03-29T20:21:13.697Z,32.80
2019-03-29T20:23:44.112Z,33.35
2019-03-29T20:26:15.362Z,29.23
2019-03-29T20:28:45.734Z,24.40
2019-03-29T20:31:16.433Z,26.42
2019-03-29T20:33:47.462Z,25.20
2019-03-29T20:36:23.150Z,23.07
2019-03-29T20:38:50.932Z,18.62
2019-03-29T20:41:21.609Z,22.40
2019-03-29T20:43:51.975Z,17.35
2019-03-29T20:46:22.783Z,18.48
2019-03-29T20:48:53.519Z,18.67
2019-03-29T20:51:25.334Z,22.22
2019-03-29T20:53:56.037Z,16.95
2019-03-29T20:56:28.885Z,20.90
2019-03-29T20:58:58.859Z,15.63
2019-03-29T21:01:29.252Z,15.25
2019-03-29T21:04:00.266Z,15.15
2019-03-29T21:06:30.980Z,15.40
2019-03-29T21:09:01.312Z,12.18
2019-03-29T21:11:31.693Z,12.65
2019-03-29T21:14:02.460Z,15.38
2019-03-29T21:16:32.933Z,14.50
2019-03-29T21:19:03.643Z,14.07
2019-03-29T21:21:34.319Z,15.65
2019-03-29T21:24:24.099Z,12.20
2019-03-29T21:26:55.275Z,14.43
2019-03-29T21:29:25.684Z,11.28
2019-03-29T21:31:56.426Z,8.65
2019-03-29T21:34:26.902Z,12.93
2019-03-29T21:36:57.591Z,10.20
2019-03-29T21:39:31.129Z,12.73
2019-03-29T21:42:00.199Z,10.72
2019-03-29T21:44:30.580Z,10.15
2019-03-29T21:47:01.220Z,11.95
2019-03-29T21:49:31.633Z,14.23
2019-03-29T21:52:02.132Z,11.25
2019-03-29T21:54:32.933Z,16.10
2019-03-29T21:57:03.602Z,9.75
2019-03-29T21:59:33.985Z,10.45
2019-03-29T22:02:04.361Z,10.10
2019-03-29T22:04:35.111Z,10.65
2019-03-29T22:07:05.811Z,12.73
2019-03-29T22:09:37.382Z,10.08
2019-03-29T22:12:07.860Z,11.65
2019-03-29T22:14:38.309Z,12.50
2019-03-29T22:17:09.178Z,14.28
2019-03-29T22:19:39.899Z,12.05
2019-03-29T22:22:10.545Z,13.65
2019-03-29T22:24:41.407Z,20.97
2019-03-29T22:27:12.280Z,16.32
2019-03-29T22:29:42.747Z,18.12
2019-03-29T22:32:13.156Z,12.50
2019-03-29T22:34:43.804Z,10.78
2019-03-29T22:37:14.426Z,11.05
2019-03-29T22:39:44.924Z,10.55
2019-03-29T22:42:15.366Z,16.93
2019-03-29T22:47:12.257Z,13.78
2019-03-29T22:49:43.269Z,9.88
2019-03-29T22:52:13.622Z,13.32
2019-03-29T22:54:43.971Z,11.43
2019-03-29T22:57:14.706Z,11.05
2019-03-29T22:59:45.356Z,12.82
2019-03-29T23:02:16.187Z,13.32
2019-03-29T23:04:46.673Z,19.07
2019-03-29T23:07:17.030Z,11.03
2019-03-29T23:09:47.485Z,12.53
2019-03-29T23:12:18.195Z,12.82
2019-03-29T23:14:48.935Z,19.70
2019-03-29T23:17:19.853Z,17.92
2019-03-29T23:19:50.581Z,19.37
2019-03-29T23:22:21.662Z,24.92
2019-03-29T23:24:52.021Z,23.87
2019-03-29T23:27:22.354Z,19.25
2019-03-29T23:29:52.909Z,18.42
2019-03-29T23:32:23.328Z,18.52
2019-03-29T23:34:54.392Z,17.90
2019-03-29T23:37:25.561Z,10.28
2019-03-29T23:39:56.129Z,8.83
2019-03-29T23:42:26.572Z,8.38
2019-03-29T23:44:56.993Z,8.95
2019-03-29T23:47:27.693Z,8.45
2019-03-29T23:50:17.474Z,9.20
2019-03-29T23:52:47.839Z,11.95
2019-03-29T23:55:18.577Z,8.83
2019-03-29T23:57:49.384Z,10.95
